Time;durP1;ratioP1;P1;durP2;ratioP2;P2;SDS_P1;SDS_P2;PMS_P1;PMS_P2;Temp;Humidity;BMP_temperature;BMP_pressure;BME280_temperature;BME280_humidity;BME280_pressure;Samples;Min_cycle;Max_cycle;Signal;HPM_P1;HPM_P2
2021/01/17 00:00:14;;;;;;;18.88;12.30;;;-0.40;76.10;;;;;;5037167;28;20026;-69
2021/01/17 00:02:40;;;;;;;16.50;11.52;;;-0.40;75.70;;;;;;5037340;28;20033;-69
2021/01/17 00:05:21;;;;;;;18.08;11.30;;;-0.40;75.90;;;;;;5037165;28;20021;-69
2021/01/17 00:07:47;;;;;;;23.27;12.52;;;-0.40;76.10;;;;;;5037244;28;20030;-69
2021/01/17 00:10:15;;;;;;;17.90;11.70;;;-0.30;75.70;;;;;;5035960;28;20303;-69
2021/01/17 00:12:41;;;;;;;19.00;12.23;;;-0.30;75.20;;;;;;5036962;28;20029;-69
2021/01/17 00:15:10;;;;;;;15.43;11.32;;;-0.30;75.50;;;;;;5036633;28;20030;-69
2021/01/17 00:17:37;;;;;;;17.48;11.93;;;-0.30;75.40;;;;;;5036957;28;20030;-69
2021/01/17 00:20:07;;;;;;;19.67;11.57;;;-0.20;75.50;;;;;;5036870;28;20033;-69
2021/01/17 00:22:32;;;;;;;18.65;11.32;;;-0.20;75.80;;;;;;5035773;28;20080;-69
2021/01/17 00:24:58;;;;;;;15.25;11.18;;;-0.20;76.00;;;;;;5036732;28;20064;-69
2021/01/17 00:27:23;;;;;;;16.45;11.18;;;-0.20;76.00;;;;;;5036832;28;20128;-70
2021/01/17 00:29:49;;;;;;;16.77;11.30;;;-0.20;75.70;;;;;;5036749;28;20108;-69
2021/01/17 00:32:15;;;;;;;17.45;11.70;;;-0.10;75.70;;;;;;5036713;28;20321;-69
2021/01/17 00:34:44;;;;;;;19.50;11.55;;;-0.10;75.60;;;;;;5036773;28;20068;-70
2021/01/17 00:37:17;;;;;;;18.40;11.57;;;-0.10;75.60;;;;;;5036567;28;20502;-69
2021/01/17 00:39:43;;;;;;;16.25;11.38;;;0.00;75.10;;;;;;5036666;28;20373;-69
2021/01/17 00:42:13;;;;;;;16.00;11.32;;;0.00;74.90;;;;;;5036608;28;20105;-69
2021/01/17 00:44:40;;;;;;;17.67;11.13;;;0.10;74.50;;;;;;5036571;28;20369;-69
2021/01/17 00:47:06;;;;;;;17.83;11.82;;;0.10;74.80;;;;;;5036567;28;20351;-69
2021/01/17 00:49:32;;;;;;;15.55;11.75;;;0.10;75.50;;;;;;5036537;28;20068;-69
2021/01/17 00:51:58;;;;;;;17.48;11.80;;;0.20;76.20;;;;;;5036474;28;20030;-69
2021/01/17 00:54:25;;;;;;;13.43;9.80;;;0.10;75.90;;;;;;5036372;28;20041;-69
2021/01/17 00:56:50;;;;;;;16.10;10.63;;;0.20;75.80;;;;;;5036440;28;20088;-69
2021/01/17 00:59:16;;;;;;;14.48;11.18;;;0.20;74.10;;;;;;5036429;28;20418;-69
2021/01/17 01:01:44;;;;;;;17.55;11.05;;;0.20;73.70;;;;;;5036455;28;20057;-70
2021/01/17 01:04:12;;;;;;;18.38;11.70;;;0.20;73.90;;;;;;5036401;28;20025;-69
2021/01/17 01:06:38;;;;;;;18.42;11.63;;;0.20;74.20;;;;;;5036645;28;20061;-69
2021/01/17 01:09:11;;;;;;;17.10;11.85;;;0.20;74.20;;;;;;5036370;28;20064;-70
2021/01/17 01:11:38;;;;;;;21.65;11.73;;;0.20;74.80;;;;;;5036505;28;20025;-69
2021/01/17 01:14:07;;;;;;;16.88;10.82;;;0.20;74.50;;;;;;5036301;28;20040;-69
2021/01/17 01:16:33;;;;;;;15.10;10.85;;;0.20;75.10;;;;;;5036246;28;20026;-69
2021/01/17 01:19:00;;;;;;;15.15;11.43;;;0.20;75.20;;;;;;5035203;28;20030;-69
2021/01/17 01:21:30;;;;;;;15.18;10.73;;;0.20;74.90;;;;;;5036288;28;20079;-69
2021/01/17 01:23:57;;;;;;;16.23;11.48;;;0.20;75.20;;;;;;5036225;28;20028;-69
2021/01/17 01:26:23;;;;;;;19.30;12.75;;;0.10;76.40;;;;;;5036446;28;20026;-70
2021/01/17 01:28:50;;;;;;;16.17;11.88;;;0.10;76.10;;;;;;5038813;28;20037;-69
2021/01/17 01:31:19;;;;;;;16.13;11.63;;;0.10;75.30;;;;;;5039824;28;20330;-69
2021/01/17 01:33:46;;;;;;;17.08;11.60;;;0.10;75.30;;;;;;5040333;28;20034;-70
2021/01/17 01:36:27;;;;;;;17.55;11.40;;;0.10;75.30;;;;;;5039765;28;20096;-69
2021/01/17 01:38:55;;;;;;;16.58;11.50;;;0.10;75.50;;;;;;5039866;28;20029;-69
2021/01/17 01:41:25;;;;;;;14.35;11.00;;;0.10;75.30;;;;;;5039766;28;20031;-69
2021/01/17 01:43:51;;;;;;;16.98;11.38;;;0.10;74.60;;;;;;5040001;28;20045;-69
2021/01/17 01:46:20;;;;;;;19.80;11.88;;;0.10;75.30;;;;;;5039692;28;20060;-69
2021/01/17 01:48:46;;;;;;;15.23;11.07;;;0.00;73.80;;;;;;5039586;28;20033;-69
2021/01/17 01:51:14;;;;;;;19.17;12.57;;;0.00;73.80;;;;;;5039580;28;20027;-69
2021/01/17 01:53:40;;;;;;;17.00;12.07;;;0.00;73.20;;;;;;5039452;28;20033;-69
2021/01/17 01:56:07;;;;;;;18.52;12.15;;;0.00;74.70;;;;;;5039841;28;20412;-69
2021/01/17 01:58:35;;;;;;;19.75;10.93;;;-0.10;75.00;;;;;;5039387;28;20105;-69
2021/01/17 02:01:01;;;;;;;17.08;11.15;;;0.00;75.70;;;;;;5039390;28;20348;-70
2021/01/17 02:03:27;;;;;;;16.70;10.70;;;0.00;75.10;;;;;;5039356;28;20341;-69
2021/01/17 02:05:53;;;;;;;15.48;11.48;;;0.00;74.10;;;;;;5039507;28;20022;-69
2021/01/17 02:08:37;;;;;;;17.55;11.18;;;0.00;74.80;;;;;;5039236;28;20033;-69
2021/01/17 02:11:34;;;;;;;14.55;10.70;;;0.00;75.30;;;;;;5039200;28;20032;-69
2021/01/17 02:14:21;;;;;;;19.35;12.30;;;0.00;74.40;;;;;;5045604;28;20041;-69
2021/01/17 02:16:47;;;;;;;20.05;12.20;;;0.00;74.10;;;;;;5039254;28;20113;-69
2021/01/17 02:19:15;;;;;;;19.15;13.30;;;0.00;73.40;;;;;;5039335;28;20326;-69
2021/01/17 02:21:48;;;;;;;17.05;12.55;;;-0.10;73.70;;;;;;5039086;28;20026;-69
2021/01/17 02:24:18;;;;;;;17.27;12.27;;;-0.10;74.40;;;;;;5039161;28;20079;-70
2021/01/17 02:26:44;;;;;;;17.35;11.82;;;-0.20;74.20;;;;;;5038664;28;20045;-70
2021/01/17 02:29:13;;;;;;;18.23;12.05;;;-0.20;74.60;;;;;;5038842;28;20050;-69
2021/01/17 02:31:40;;;;;;;15.70;12.25;;;-0.10;75.30;;;;;;5038801;28;20033;-69
2021/01/17 02:34:08;;;;;;;17.35;12.55;;;-0.10;75.10;;;;;;5038774;28;20076;-69
2021/01/17 02:36:47;;;;;;;18.77;12.55;;;-0.10;75.50;;;;;;5038764;28;20060;-69
2021/01/17 02:39:17;;;;;;;16.95;12.18;;;-0.20;75.60;;;;;;5038159;28;20026;-70
2021/01/17 02:41:57;;;;;;;17.38;12.73;;;-0.20;74.90;;;;;;5038685;28;20135;-69
2021/01/17 02:44:27;;;;;;;18.27;12.20;;;-0.10;75.00;;;;;;5038769;28;20017;-69
2021/01/17 02:46:53;;;;;;;19.10;11.80;;;-0.20;75.60;;;;;;5038652;28;20029;-69
2021/01/17 02:49:19;;;;;;;16.05;11.77;;;-0.30;74.90;;;;;;5038722;28;20025;-69
2021/01/17 02:51:46;;;;;;;15.60;12.35;;;-0.30;74.90;;;;;;5038699;28;20033;-70
2021/01/17 02:54:21;;;;;;;16.67;12.02;;;-0.30;74.90;;;;;;5038516;28;20321;-69
2021/01/17 02:57:10;;;;;;;18.88;12.32;;;-0.30;75.40;;;;;;5038375;28;20037;-69
2021/01/17 02:59:47;;;;;;;18.42;11.82;;;-0.40;76.00;;;;;;5038166;28;20044;-69
2021/01/17 03:02:14;;;;;;;18.58;12.35;;;-0.40;75.70;;;;;;5038537;28;20029;-69
2021/01/17 03:04:44;;;;;;;18.60;11.75;;;-0.40;75.60;;;;;;5038087;28;20017;-69
2021/01/17 03:07:13;;;;;;;17.20;12.35;;;-0.40;75.60;;;;;;5038140;28;20047;-69
2021/01/17 03:09:44;;;;;;;19.17;12.35;;;-0.40;75.90;;;;;;5038148;28;20026;-69
2021/01/17 03:12:11;;;;;;;15.48;10.82;;;-0.40;75.90;;;;;;5037032;28;20034;-70
2021/01/17 03:14:39;;;;;;;15.38;11.82;;;-0.40;75.60;;;;;;5037959;28;20413;-69
2021/01/17 03:17:06;;;;;;;15.82;12.35;;;-0.40;75.70;;;;;;5038225;28;20025;-69
2021/01/17 03:19:32;;;;;;;16.42;12.05;;;-0.40;75.70;;;;;;5037895;28;20480;-69
2021/01/17 03:21:58;;;;;;;15.15;12.30;;;-0.40;75.50;;;;;;5037884;28;20029;-69
2021/01/17 03:24:25;;;;;;;15.60;11.55;;;-0.40;76.20;;;;;;5037946;28;20029;-69
2021/01/17 03:26:51;;;;;;;15.27;12.00;;;-0.40;76.10;;;;;;5037823;28;20053;-69
2021/01/17 03:29:17;;;;;;;15.43;12.00;;;-0.50;76.30;;;;;;5038011;28;20064;-69
2021/01/17 03:31:43;;;;;;;19.35;11.93;;;-0.50;76.30;;;;;;5036918;28;20366;-69
2021/01/17 03:34:08;;;;;;;17.30;12.32;;;-0.50;76.70;;;;;;5037649;28;20057;-69
2021/01/17 03:36:34;;;;;;;18.73;12.73;;;-0.50;76.80;;;;;;5037521;28;20025;-70
2021/01/17 03:39:00;;;;;;;19.88;13.40;;;-0.60;76.90;;;;;;5037782;28;20313;-69
2021/01/17 03:41:26;;;;;;;16.10;12.63;;;-0.60;77.20;;;;;;5037530;28;20024;-69
2021/01/17 03:43:51;;;;;;;18.08;12.75;;;-0.60;77.40;;;;;;5037448;28;20026;-69
2021/01/17 03:46:18;;;;;;;19.08;13.30;;;-0.60;77.20;;;;;;5037476;28;20049;-69
2021/01/17 03:48:44;;;;;;;20.35;13.10;;;-0.70;77.10;;;;;;5037403;28;20112;-69
2021/01/17 03:51:09;;;;;;;15.93;12.57;;;-0.70;77.00;;;;;;5036532;28;20053;-69
2021/01/17 03:53:35;;;;;;;17.27;13.05;;;-0.60;76.80;;;;;;5037223;28;20029;-69
2021/01/17 03:56:01;;;;;;;16.80;12.00;;;-0.70;76.90;;;;;;5037471;28;20028;-69
2021/01/17 03:58:26;;;;;;;19.10;12.88;;;-0.70;77.00;;;;;;5036429;28;20040;-69
2021/01/17 04:00:52;;;;;;;15.05;11.75;;;-0.70;77.00;;;;;;5037430;28;20017;-69
2021/01/17 04:03:18;;;;;;;16.20;12.40;;;-0.70;76.80;;;;;;5037124;28;20323;-69
2021/01/17 04:05:44;;;;;;;15.88;12.05;;;-0.70;77.00;;;;;;5037139;28;20099;-69
2021/01/17 04:08:09;;;;;;;15.82;12.63;;;-0.70;76.90;;;;;;5037063;28;20108;-69
2021/01/17 04:10:35;;;;;;;17.08;12.85;;;-0.80;77.20;;;;;;5037011;28;20105;-69
2021/01/17 04:13:01;;;;;;;17.35;13.07;;;-0.80;77.80;;;;;;5036955;28;20319;-69
2021/01/17 04:15:26;;;;;;;17.70;12.73;;;-0.80;78.00;;;;;;5036901;28;20026;-69
2021/01/17 04:17:52;;;;;;;19.02;12.82;;;-0.90;78.30;;;;;;5036880;28;20029;-69
2021/01/17 04:20:17;;;;;;;18.83;13.50;;;-0.90;77.80;;;;;;5036882;28;20437;-69
2021/01/17 04:22:43;;;;;;;17.75;12.57;;;-0.90;77.60;;;;;;5036819;28;20031;-69
2021/01/17 04:25:09;;;;;;;15.43;12.32;;;-0.90;77.80;;;;;;5037002;28;20022;-69
2021/01/17 04:27:35;;;;;;;15.77;13.02;;;-0.90;78.00;;;;;;5036590;28;20480;-69
2021/01/17 04:30:01;;;;;;;16.23;12.10;;;-0.80;77.70;;;;;;5036727;28;20049;-69
2021/01/17 04:32:26;;;;;;;16.73;12.68;;;-0.80;77.20;;;;;;5036706;28;20041;-69
2021/01/17 04:34:52;;;;;;;15.73;12.60;;;-0.80;77.00;;;;;;5036593;28;20414;-69
2021/01/17 04:37:22;;;;;;;15.45;12.23;;;-0.90;77.20;;;;;;5036579;28;20102;-69
2021/01/17 04:39:48;;;;;;;16.88;12.68;;;-0.90;77.00;;;;;;5036630;28;20029;-69
2021/01/17 04:42:18;;;;;;;16.40;12.40;;;-0.90;77.10;;;;;;5036572;28;20033;-69
2021/01/17 04:44:54;;;;;;;15.65;12.65;;;-1.00;77.20;;;;;;5036629;28;20029;-69
2021/01/17 04:47:21;;;;;;;15.43;12.13;;;-1.00;77.10;;;;;;5036734;28;20036;-69
2021/01/17 04:49:51;;;;;;;15.98;12.75;;;-1.00;77.40;;;;;;5036775;28;20104;-69
2021/01/17 04:52:20;;;;;;;15.57;12.60;;;-1.10;77.80;;;;;;5036554;28;20442;-69
2021/01/17 04:54:47;;;;;;;17.52;12.35;;;-1.10;78.20;;;;;;5036807;28;20327;-69
2021/01/17 04:57:26;;;;;;;17.58;12.27;;;-1.10;77.70;;;;;;5036717;28;20107;-69
2021/01/17 05:00:09;;;;;;;16.30;13.43;;;-1.10;77.40;;;;;;5036464;28;20022;-69
2021/01/17 05:02:41;;;;;;;17.08;11.95;;;-1.10;77.30;;;;;;5038921;28;20307;-69
2021/01/17 05:05:09;;;;;;;18.48;12.10;;;-1.00;77.70;;;;;;5040500;28;20313;-69
2021/01/17 05:07:36;;;;;;;18.17;12.73;;;-1.10;77.10;;;;;;5040748;28;20356;-69
2021/01/17 05:10:10;;;;;;;15.95;12.25;;;-1.00;76.90;;;;;;5040390;28;20018;-69
2021/01/17 05:13:04;;;;;;;14.70;11.20;;;-1.00;77.20;;;;;;5040480;28;20029;-69
2021/01/17 05:15:32;;;;;;;16.65;12.68;;;-0.90;76.70;;;;;;5040087;28;20108;-69
2021/01/17 05:18:01;;;;;;;13.63;11.32;;;-0.90;76.70;;;;;;5039098;28;20051;-69
2021/01/17 05:20:27;;;;;;;15.57;11.10;;;-0.90;77.00;;;;;;5039086;28;20438;-69
2021/01/17 05:22:56;;;;;;;18.35;12.57;;;-0.90;77.40;;;;;;5040379;28;20033;-69
2021/01/17 05:25:25;;;;;;;17.83;13.20;;;-0.90;77.40;;;;;;5040371;28;20021;-69
2021/01/17 05:27:51;;;;;;;20.67;13.93;;;-0.90;77.40;;;;;;5039903;28;20053;-69
2021/01/17 05:30:18;;;;;;;22.38;13.40;;;-0.90;77.20;;;;;;5040004;28;20291;-69
2021/01/17 05:32:48;;;;;;;17.98;12.88;;;-0.90;77.10;;;;;;5040176;28;20029;-69
2021/01/17 05:35:14;;;;;;;15.88;12.10;;;-0.90;77.60;;;;;;5039865;28;20421;-69
2021/01/17 05:37:54;;;;;;;12.55;11.15;;;-0.90;77.40;;;;;;5039796;28;20029;-69
2021/01/17 05:40:21;;;;;;;16.60;13.02;;;-0.90;77.60;;;;;;5039905;28;20025;-69
2021/01/17 05:42:48;;;;;;;15.98;13.93;;;-0.90;77.50;;;;;;5039687;28;20029;-69
2021/01/17 05:45:18;;;;;;;20.75;13.32;;;-0.90;77.40;;;;;;5039948;28;20024;-69
2021/01/17 05:47:58;;;;;;;15.88;12.38;;;-0.90;77.40;;;;;;5039818;28;20025;-69
2021/01/17 05:50:25;;;;;;;14.68;10.55;;;-0.80;77.30;;;;;;5039708;28;20037;-70
2021/01/17 05:52:56;;;;;;;15.80;9.85;;;-0.80;76.10;;;;;;5039610;28;20100;-70
2021/01/17 05:55:51;;;;;;;12.48;8.95;;;-0.80;74.50;;;;;;5039899;28;20040;-69
2021/01/17 05:58:22;;;;;;;11.70;7.88;;;-0.70;73.10;;;;;;5038871;28;20376;-69
2021/01/17 06:00:56;;;;;;;12.85;8.27;;;-0.70;72.80;;;;;;5039355;28;20053;-69
2021/01/17 06:03:36;;;;;;;11.02;9.07;;;-0.70;72.20;;;;;;5039431;28;20052;-69
2021/01/17 06:06:05;;;;;;;10.23;7.97;;;-0.60;72.50;;;;;;5039555;28;20056;-69
2021/01/17 06:08:32;;;;;;;11.20;8.20;;;-0.60;72.10;;;;;;5039402;28;20071;-69
2021/01/17 06:11:08;;;;;;;11.40;7.90;;;-0.60;71.90;;;;;;5039500;28;20022;-69
2021/01/17 06:13:35;;;;;;;;;;;-0.60;71.90;;;;;;5038685;28;20433;-69
2021/01/17 06:16:01;;;;;;;10.98;7.85;;;-0.50;71.10;;;;;;5039067;28;20285;-69
2021/01/17 06:18:29;;;;;;;10.23;8.25;;;-0.50;71.00;;;;;;5038976;28;20021;-69
2021/01/17 06:20:57;;;;;;;10.60;7.57;;;-0.50;71.30;;;;;;5039031;28;20022;-69
2021/01/17 06:23:24;;;;;;;12.82;7.95;;;-0.50;71.60;;;;;;5038999;28;20144;-69
2021/01/17 06:26:10;;;;;;;11.45;8.35;;;-0.50;71.80;;;;;;5039337;28;20360;-69
2021/01/17 06:28:41;;;;;;;10.38;8.07;;;-0.60;72.30;;;;;;5039208;28;20048;-69
2021/01/17 06:31:08;;;;;;;12.30;7.57;;;-0.70;73.10;;;;;;5039154;28;20321;-69
2021/01/17 06:33:35;;;;;;;9.00;7.13;;;-0.80;73.20;;;;;;5038793;28;20024;-69
2021/01/17 06:36:15;;;;;;;12.55;8.23;;;-0.90;73.10;;;;;;5038745;28;20024;-69
2021/01/17 06:38:44;;;;;;;10.65;7.38;;;-0.90;73.20;;;;;;5038768;28;20372;-70
2021/01/17 06:41:12;;;;;;;9.52;6.15;;;-0.90;73.40;;;;;;5038671;28;20033;-69
2021/01/17 06:43:43;;;;;;;7.82;6.32;;;-0.90;73.90;;;;;;5038853;28;20028;-69
2021/01/17 06:46:10;;;;;;;8.43;6.28;;;-0.90;73.60;;;;;;5038610;28;20024;-69
2021/01/17 06:48:36;;;;;;;9.55;6.72;;;-0.90;74.10;;;;;;5038515;28;20028;-69
2021/01/17 06:51:20;;;;;;;9.27;6.15;;;-0.90;73.20;;;;;;5038457;28;20021;-69
2021/01/17 06:53:55;;;;;;;8.55;6.43;;;-0.90;72.40;;;;;;5038455;28;20024;-69
2021/01/17 06:56:22;;;;;;;10.03;6.93;;;-0.80;71.70;;;;;;5037457;28;20025;-69
2021/01/17 06:58:51;;;;;;;12.43;7.82;;;-0.70;71.30;;;;;;5038358;28;20425;-69
2021/01/17 07:01:28;;;;;;;10.63;8.02;;;-0.70;71.10;;;;;;5038296;28;20044;-69
2021/01/17 07:04:08;;;;;;;10.43;7.32;;;-0.50;70.50;;;;;;5038411;28;20028;-69
2021/01/17 07:07:01;;;;;;;11.63;7.03;;;-0.50;70.00;;;;;;5038758;28;20033;-69
2021/01/17 07:10:15;;;;;;;10.82;7.80;;;-0.40;70.60;;;;;;5038118;28;20029;-69
2021/01/17 07:12:54;;;;;;;11.55;8.80;;;-0.40;70.70;;;;;;5037835;28;20038;-69
2021/01/17 07:15:28;;;;;;;14.13;10.63;;;-0.40;71.50;;;;;;5038074;28;20172;-69
2021/01/17 07:18:14;;;;;;;13.18;10.18;;;-0.40;72.20;;;;;;5037874;28;20067;-69
2021/01/17 07:20:45;;;;;;;13.05;8.10;;;-0.40;73.10;;;;;;5038038;28;20021;-69
2021/01/17 07:23:13;;;;;;;12.57;9.15;;;-0.40;73.30;;;;;;5037887;28;20108;-69
2021/01/17 07:25:42;;;;;;;15.60;9.68;;;-0.40;72.90;;;;;;5038105;28;20032;-69
2021/01/17 07:28:16;;;;;;;12.48;9.02;;;-0.40;73.90;;;;;;5036535;28;20056;-70
2021/01/17 07:30:46;;;;;;;13.55;8.35;;;-0.50;73.90;;;;;;5036648;28;20033;-69
2021/01/17 07:33:14;;;;;;;12.68;9.50;;;-0.50;73.60;;;;;;5037678;28;20114;-70
2021/01/17 07:35:47;;;;;;;12.77;10.02;;;-0.40;74.50;;;;;;5037541;28;20029;-69
2021/01/17 07:38:19;;;;;;;17.67;11.65;;;-0.40;74.50;;;;;;5037920;28;20147;-69
2021/01/17 07:40:53;;;;;;;15.27;10.95;;;-0.40;75.30;;;;;;5037588;28;20108;-69
2021/01/17 07:43:21;;;;;;;15.40;10.63;;;-0.50;75.60;;;;;;5037519;28;20028;-70
2021/01/17 07:45:47;;;;;;;28.77;15.70;;;-0.50;75.90;;;;;;5037458;28;20410;-67
2021/01/17 07:48:15;;;;;;;19.40;14.13;;;-0.50;76.40;;;;;;5037487;28;20026;-69
2021/01/17 07:50:47;;;;;;;19.73;14.15;;;-0.40;76.00;;;;;;5036306;28;20029;-69
2021/01/17 07:53:38;;;;;;;18.02;13.70;;;-0.40;75.50;;;;;;5037588;28;20040;-69
2021/01/17 07:56:15;;;;;;;16.60;13.52;;;-0.30;74.40;;;;;;5045578;28;20041;-69
2021/01/17 07:58:43;;;;;;;;;;;-0.20;73.70;;;;;;5037128;28;20038;-69
2021/01/17 08:01:33;;;;;;;16.77;12.27;;;-0.20;73.60;;;;;;5036147;28;20309;-69
2021/01/17 08:04:02;;;;;;;20.83;14.25;;;-0.10;73.60;;;;;;5039578;28;20045;-69
2021/01/17 08:06:37;;;;;;;14.73;12.63;;;-0.20;73.50;;;;;;5037088;28;20096;-69
2021/01/17 08:09:10;;;;;;;19.35;14.02;;;-0.10;73.10;;;;;;5035981;28;20476;-69
2021/01/17 08:11:55;;;;;;;21.33;15.27;;;-0.10;73.10;;;;;;5036010;28;20025;-69
2021/01/17 08:14:32;;;;;;;135.75;52.42;;;-0.10;73.40;;;;;;5037249;28;20029;-69
2021/01/17 08:17:15;;;;;;;84.68;36.63;;;0.00;74.60;;;;;;5037150;28;20099;-69
2021/01/17 08:19:55;;;;;;;48.83;22.90;;;0.00;74.40;;;;;;5036924;28;20028;-70
2021/01/17 08:22:20;;;;;;;24.88;16.58;;;0.10;74.40;;;;;;5036939;28;20022;-69
2021/01/17 08:24:48;;;;;;;29.08;15.43;;;0.10;75.40;;;;;;5036980;28;20291;-69
2021/01/17 08:30:03;;;;;;;18.13;13.85;;;0.30;74.70;;;;;;5037128;28;20421;-70
2021/01/17 08:32:35;;;;;;;24.65;15.90;;;0.40;74.80;;;;;;5036737;28;20026;-70
2021/01/17 08:35:34;;;;;;;23.63;16.98;;;0.50;75.50;;;;;;5036936;28;20029;-69
2021/01/17 08:38:08;;;;;;;25.65;18.77;;;0.50;74.50;;;;;;5036597;28;20033;-70
2021/01/17 08:40:34;;;;;;;25.55;18.20;;;0.50;73.80;;;;;;5036674;28;20095;-70
2021/01/17 08:43:05;;;;;;;23.77;15.68;;;0.60;73.10;;;;;;5036633;28;20026;-70
2021/01/17 08:45:39;;;;;;;17.48;12.60;;;0.70;72.60;;;;;;5036588;28;20317;-70
2021/01/17 08:48:16;;;;;;;17.30;12.75;;;0.70;71.20;;;;;;5036890;28;20033;-69
2021/01/17 08:50:47;;;;;;;15.70;11.75;;;0.70;70.50;;;;;;5036548;28;20104;-70
2021/01/17 08:53:33;;;;;;;13.95;9.75;;;0.80;70.20;;;;;;5036585;28;20371;-70
2021/01/17 08:56:20;;;;;;;14.02;9.95;;;0.90;69.10;;;;;;5036886;28;20146;-69
2021/01/17 08:58:52;;;;;;;10.73;8.75;;;1.00;67.00;;;;;;5036370;28;20098;-67
2021/01/17 09:01:20;;;;;;;10.48;7.75;;;1.00;66.70;;;;;;5036506;28;20013;-69
2021/01/17 09:03:45;;;;;;;11.80;7.72;;;1.10;66.60;;;;;;5036693;28;20084;-70
2021/01/17 09:06:11;;;;;;;8.15;6.72;;;1.20;65.30;;;;;;5036475;28;20026;-67
2021/01/17 09:08:39;;;;;;;9.68;7.28;;;1.20;64.10;;;;;;5036422;28;20068;-69
2021/01/17 09:11:25;;;;;;;9.13;6.80;;;1.30;65.70;;;;;;5036310;28;20060;-67
2021/01/17 09:14:20;;;;;;;10.05;6.80;;;1.40;64.10;;;;;;5036678;28;20429;-67
2021/01/17 09:16:56;;;;;;;10.32;8.35;;;1.50;63.30;;;;;;5035099;28;20092;-70
2021/01/17 09:19:28;;;;;;;13.15;9.70;;;1.60;63.70;;;;;;5035257;28;20057;-67
2021/01/17 09:21:55;;;;;;;14.23;10.85;;;1.60;64.30;;;;;;5036847;28;20091;-69
2021/01/17 09:24:29;;;;;;;17.38;12.43;;;1.70;66.70;;;;;;5036206;28;20079;-67
2021/01/17 09:26:59;;;;;;;17.10;13.40;;;1.80;68.20;;;;;;5036247;28;20529;-67
2021/01/17 09:29:35;;;;;;;15.27;11.93;;;1.80;68.20;;;;;;5036250;28;20025;-67
2021/01/17 09:32:07;;;;;;;17.92;11.35;;;1.80;67.80;;;;;;5036162;28;20085;-67
2021/01/17 09:34:37;;;;;;;13.40;10.25;;;1.80;67.20;;;;;;5036113;28;20426;-67
2021/01/17 09:37:11;;;;;;;13.88;10.75;;;1.70;65.60;;;;;;5036081;28;20036;-69
2021/01/17 09:39:42;;;;;;;16.10;11.27;;;1.70;65.30;;;;;;5036124;28;20022;-67
2021/01/17 09:42:09;;;;;;;20.40;12.02;;;1.70;64.40;;;;;;5036167;28;20026;-67
2021/01/17 09:44:37;;;;;;;16.27;11.32;;;1.70;64.90;;;;;;5036060;28;20021;-67
2021/01/17 09:47:13;;;;;;;16.05;11.77;;;1.80;65.70;;;;;;5036958;28;20368;-67
2021/01/17 09:49:38;;;;;;;15.73;12.37;;;1.80;67.20;;;;;;5038377;28;20033;-67
2021/01/17 09:52:04;;;;;;;15.77;12.18;;;1.80;66.00;;;;;;5039639;28;20735;-67
2021/01/17 09:54:35;;;;;;;14.18;12.18;;;1.90;65.40;;;;;;5038283;28;20037;-67
2021/01/17 09:57:15;;;;;;;16.08;12.75;;;1.90;65.50;;;;;;5039491;28;20330;-67
2021/01/17 09:59:41;;;;;;;15.00;12.07;;;1.90;65.10;;;;;;5039486;28;20148;-67
2021/01/17 10:02:09;;;;;;;16.27;11.75;;;1.90;65.70;;;;;;5039445;28;20461;-67
2021/01/17 10:04:37;;;;;;;17.70;12.43;;;1.90;65.70;;;;;;5039520;28;20100;-67
2021/01/17 10:07:03;;;;;;;18.50;12.77;;;1.90;66.30;;;;;;5039441;28;20352;-67
2021/01/17 10:09:29;;;;;;;20.10;12.88;;;1.90;66.30;;;;;;5043166;28;20044;-67
2021/01/17 10:11:56;;;;;;;18.77;13.55;;;1.90;67.00;;;;;;5048074;28;20029;-67
2021/01/17 10:14:24;;;;;;;15.95;13.05;;;1.90;69.10;;;;;;5037954;28;20107;-69
2021/01/17 10:16:52;;;;;;;13.02;10.77;;;1.90;66.80;;;;;;5038259;28;20353;-67
2021/01/17 10:19:26;;;;;;;15.38;11.10;;;2.00;64.30;;;;;;5039095;28;20109;-67
2021/01/17 10:21:51;;;;;;;18.65;10.80;;;2.00;64.00;;;;;;5038989;28;20018;-69
2021/01/17 10:24:26;;;;;;;14.57;11.20;;;2.10;62.90;;;;;;5038934;28;20105;-67
2021/01/17 10:26:55;;;;;;;18.92;11.52;;;2.10;63.00;;;;;;5037732;28;20053;-67
2021/01/17 10:29:23;;;;;;;15.02;11.30;;;1.90;63.60;;;;;;5039188;28;20079;-67
2021/01/17 10:31:53;;;;;;;14.85;11.25;;;1.90;63.90;;;;;;5038813;28;20500;-67
2021/01/17 10:34:24;;;;;;;13.43;10.52;;;1.80;63.70;;;;;;5038809;28;20108;-67
2021/01/17 10:36:55;;;;;;;13.57;9.40;;;1.70;63.50;;;;;;5037722;28;20025;-67
2021/01/17 10:39:22;;;;;;;12.95;10.23;;;1.70;62.90;;;;;;5038791;28;20029;-67
2021/01/17 10:41:48;;;;;;;12.98;9.82;;;1.80;63.10;;;;;;5038719;28;20032;-69
2021/01/17 10:44:24;;;;;;;13.55;9.90;;;1.90;62.10;;;;;;5038696;28;20409;-69
2021/01/17 10:46:58;;;;;;;14.85;9.73;;;2.00;61.60;;;;;;5038685;28;20072;-70
2021/01/17 10:49:29;;;;;;;15.50;9.82;;;2.10;61.20;;;;;;5038769;28;20307;-69
2021/01/17 10:51:57;;;;;;;14.20;10.50;;;2.10;62.90;;;;;;5038555;28;20021;-69
2021/01/17 10:54:31;;;;;;;13.55;9.63;;;2.10;62.80;;;;;;5038430;28;20044;-69
2021/01/17 10:57:02;;;;;;;11.30;9.45;;;2.10;60.90;;;;;;5038452;28;20440;-69
2021/01/17 10:59:30;;;;;;;13.70;10.55;;;2.20;59.70;;;;;;5037984;28;20430;-69
2021/01/17 11:01:55;;;;;;;17.23;11.55;;;2.30;62.00;;;;;;5038327;28;20022;-70
2021/01/17 11:04:21;;;;;;;12.88;10.00;;;2.40;61.90;;;;;;5038558;28;20026;-70
2021/01/17 11:06:47;;;;;;;14.32;10.80;;;2.40;62.30;;;;;;5038496;28;20112;-70
2021/01/17 11:09:15;;;;;;;16.38;11.43;;;2.50;61.90;;;;;;5038449;28;20029;-70
2021/01/17 11:11:43;;;;;;;16.30;11.38;;;2.50;62.60;;;;;;5038143;28;20025;-69
2021/01/17 11:14:09;;;;;;;13.15;11.18;;;2.40;61.80;;;;;;5038259;28;20052;-69
2021/01/17 11:16:39;;;;;;;15.40;10.68;;;2.50;62.00;;;;;;5038194;28;20049;-69
2021/01/17 11:19:06;;;;;;;13.93;9.50;;;2.50;60.90;;;;;;5036936;28;20030;-69
2021/01/17 11:21:32;;;;;;;16.90;11.55;;;2.60;59.40;;;;;;5037964;28;20096;-69
2021/01/17 11:23:58;;;;;;;13.82;11.07;;;2.60;60.50;;;;;;5036731;28;20083;-70
2021/01/17 11:26:26;;;;;;;13.00;9.40;;;2.60;60.00;;;;;;5037537;28;20017;-70
2021/01/17 11:29:03;;;;;;;13.73;10.65;;;2.60;58.90;;;;;;5038089;28;20083;-69
2021/01/17 11:31:29;;;;;;;13.82;10.50;;;2.70;58.40;;;;;;5036704;28;20044;-70
2021/01/17 11:33:55;;;;;;;14.75;11.05;;;2.80;59.70;;;;;;5037704;28;20034;-69
2021/01/17 11:36:28;;;;;;;16.75;11.60;;;2.90;58.60;;;;;;5037662;28;20433;-69
2021/01/17 11:38:58;;;;;;;14.10;10.25;;;2.90;58.00;;;;;;5037836;28;20049;-70
2021/01/17 11:41:35;;;;;;;18.10;11.43;;;2.90;58.70;;;;;;5036474;28;20330;-69
2021/01/17 11:44:07;;;;;;;13.60;10.90;;;3.00;57.70;;;;;;5037726;28;20074;-69
2021/01/17 11:46:33;;;;;;;13.38;10.77;;;3.10;58.10;;;;;;5037663;28;20033;-69
2021/01/17 11:49:00;;;;;;;18.40;12.85;;;3.10;58.40;;;;;;5036390;28;20425;-69
2021/01/17 11:51:25;;;;;;;14.20;10.90;;;3.10;58.70;;;;;;5037353;28;20040;-69
2021/01/17 11:53:51;;;;;;;15.73;11.82;;;3.20;56.30;;;;;;5037465;28;20026;-70
2021/01/17 11:56:17;;;;;;;14.00;10.85;;;3.10;58.90;;;;;;5037206;28;20425;-70
2021/01/17 11:58:42;;;;;;;20.55;12.35;;;3.00;58.00;;;;;;5037215;28;20043;-70
2021/01/17 12:01:08;;;;;;;16.23;12.70;;;3.10;58.90;;;;;;5037463;28;20032;-70
2021/01/17 12:03:35;;;;;;;18.58;12.57;;;3.10;57.70;;;;;;5037147;28;20033;-70
2021/01/17 12:06:09;;;;;;;16.52;12.48;;;3.20;57.50;;;;;;5037124;28;20045;-70
2021/01/17 12:08:50;;;;;;;14.27;11.25;;;3.30;58.70;;;;;;5036050;28;20039;-69
2021/01/17 12:11:51;;;;;;;18.45;13.02;;;3.40;56.90;;;;;;5036351;28;20414;-70
2021/01/17 12:14:20;;;;;;;16.33;11.07;;;3.40;58.80;;;;;;5046472;28;20057;-69
2021/01/17 12:16:58;;;;;;;17.20;11.73;;;3.50;57.40;;;;;;5036146;28;20029;-70
2021/01/17 12:19:26;;;;;;;16.13;12.20;;;3.50;56.50;;;;;;5037199;28;20091;-69
2021/01/17 12:21:56;;;;;;;16.55;12.00;;;3.50;56.80;;;;;;5036950;28;20433;-70
2021/01/17 12:24:23;;;;;;;17.92;13.30;;;3.40;55.90;;;;;;5036743;28;20048;-69
2021/01/17 12:26:51;;;;;;;18.88;13.23;;;3.30;57.00;;;;;;5036661;28;20057;-70
2021/01/17 12:29:17;;;;;;;19.13;12.43;;;3.30;56.80;;;;;;5036781;28;20029;-70
2021/01/17 12:31:43;;;;;;;17.55;11.95;;;3.10;56.80;;;;;;5036968;28;20034;-70
2021/01/17 12:34:10;;;;;;;17.08;12.18;;;3.10;57.50;;;;;;5035686;28;20033;-69
2021/01/17 12:36:41;;;;;;;15.88;11.65;;;3.10;57.80;;;;;;5036692;28;20475;-69
2021/01/17 12:39:08;;;;;;;15.35;11.98;;;3.10;56.70;;;;;;5036722;28;20029;-69
2021/01/17 12:41:38;;;;;;;15.13;11.65;;;3.10;58.00;;;;;;5036840;28;20025;-69
2021/01/17 12:44:04;;;;;;;14.60;10.90;;;3.00;57.10;;;;;;5036776;28;20045;-69
2021/01/17 12:46:30;;;;;;;11.80;9.07;;;2.90;58.20;;;;;;5037085;28;20031;-69
2021/01/17 12:48:56;;;;;;;14.55;10.07;;;2.80;57.90;;;;;;5036860;28;20151;-69
2021/01/17 12:51:22;;;;;;;14.13;10.95;;;2.70;57.20;;;;;;5036595;28;20060;-69
2021/01/17 12:53:50;;;;;;;12.68;10.15;;;2.80;57.70;;;;;;5036656;28;20364;-69